sensor_id;sensor_type;location;lat;lon;timestamp;temperature;humidity
27128;DHT22;14660;49.008;8.390;2023-04-25T00:02:08;10.60;99.90
27128;DHT22;14660;49.008;8.390;2023-04-25T00:04:35;10.60;99.90
27128;DHT22;14660;49.008;8.390;2023-04-25T00:07:04;10.40;99.90
27128;DHT22;14660;49.008;8.390;2023-04-25T00:09:31;10.30;99.90
27128;DHT22;14660;49.008;8.390;2023-04-25T00:11:58;10.30;99.90
27128;DHT22;14660;49.008;8.390;2023-04-25T00:14:25;10.20;99.90
27128;DHT22;14660;49.008;8.390;2023-04-25T00:16:52;10.20;99.90
27128;DHT22;14660;49.008;8.390;2023-04-25T00:19:20;10.20;99.90
27128;DHT22;14660;49.008;8.390;2023-04-25T00:21:47;10.20;99.90
27128;DHT22;14660;49.008;8.390;2023-04-25T00:24:14;10.40;99.90
27128;DHT22;14660;49.008;8.390;2023-04-25T00:26:41;10.50;99.90
27128;DHT22;14660;49.008;8.390;2023-04-25T00:29:11;10.40;99.90
27128;DHT22;14660;49.008;8.390;2023-04-25T00:31:38;10.50;99.90
27128;DHT22;14660;49.008;8.390;2023-04-25T00:34:06;10.40;99.90
27128;DHT22;14660;49.008;8.390;2023-04-25T00:36:33;10.40;99.90
27128;DHT22;14660;49.008;8.390;2023-04-25T00:38:59;10.40;99.90
27128;DHT22;14660;49.008;8.390;2023-04-25T00:41:27;10.40;99.90
27128;DHT22;14660;49.008;8.390;2023-04-25T00:43:55;10.40;99.90
27128;DHT22;14660;49.008;8.390;2023-04-25T00:46:23;10.40;99.90
27128;DHT22;14660;49.008;8.390;2023-04-25T00:48:49;10.40;99.90
27128;DHT22;14660;49.008;8.390;2023-04-25T00:51:20;10.40;99.90
27128;DHT22;14660;49.008;8.390;2023-04-25T00:53:49;10.50;99.90
27128;DHT22;14660;49.008;8.390;2023-04-25T00:56:16;10.30;99.90
27128;DHT22;14660;49.008;8.390;2023-04-25T00:58:43;10.30;99.90
27128;DHT22;14660;49.008;8.390;2023-04-25T01:01:10;10.30;99.90
27128;DHT22;14660;49.008;8.390;2023-04-25T01:03:41;10.30;99.90
27128;DHT22;14660;49.008;8.390;2023-04-25T01:06:11;10.40;99.90
27128;DHT22;14660;49.008;8.390;2023-04-25T01:08:39;10.40;99.90
27128;DHT22;14660;49.008;8.390;2023-04-25T01:11:06;10.40;99.90
27128;DHT22;14660;49.008;8.390;2023-04-25T01:13:34;10.40;99.90
27128;DHT22;14660;49.008;8.390;2023-04-25T01:16:01;10.40;99.90
27128;DHT22;14660;49.008;8.390;2023-04-25T01:18:28;10.30;99.90
27128;DHT22;14660;49.008;8.390;2023-04-25T01:20:55;10.20;99.90
27128;DHT22;14660;49.008;8.390;2023-04-25T01:23:23;10.20;99.90
27128;DHT22;14660;49.008;8.390;2023-04-25T01:25:50;10.10;99.90
27128;DHT22;14660;49.008;8.390;2023-04-25T01:28:17;10.00;99.90
27128;DHT22;14660;49.008;8.390;2023-04-25T01:30:45;10.10;99.90
27128;DHT22;14660;49.008;8.390;2023-04-25T01:33:14;10.10;99.90
27128;DHT22;14660;49.008;8.390;2023-04-25T01:35:40;10.10;99.90
27128;DHT22;14660;49.008;8.390;2023-04-25T01:38:08;10.10;99.90
27128;DHT22;14660;49.008;8.390;2023-04-25T01:40:38;10.20;99.90
27128;DHT22;14660;49.008;8.390;2023-04-25T01:43:06;10.30;99.90
27128;DHT22;14660;49.008;8.390;2023-04-25T01:45:34;10.20;99.90
27128;DHT22;14660;49.008;8.390;2023-04-25T01:48:02;10.30;99.90
27128;DHT22;14660;49.008;8.390;2023-04-25T01:50:30;10.30;99.90
27128;DHT22;14660;49.008;8.390;2023-04-25T01:52:57;10.30;99.90
27128;DHT22;14660;49.008;8.390;2023-04-25T01:55:24;10.40;99.90
27128;DHT22;14660;49.008;8.390;2023-04-25T01:57:51;10.30;99.90
27128;DHT22;14660;49.008;8.390;2023-04-25T02:00:18;10.40;99.90
27128;DHT22;14660;49.008;8.390;2023-04-25T02:02:45;10.50;99.90
27128;DHT22;14660;49.008;8.390;2023-04-25T02:05:11;10.40;99.90
27128;DHT22;14660;49.008;8.390;2023-04-25T02:07:38;10.40;99.90
27128;DHT22;14660;49.008;8.390;2023-04-25T02:10:05;10.40;99.90
27128;DHT22;14660;49.008;8.390;2023-04-25T02:12:32;10.30;99.90
27128;DHT22;14660;49.008;8.390;2023-04-25T02:15:01;10.40;99.90
27128;DHT22;14660;49.008;8.390;2023-04-25T02:17:28;10.40;99.90
27128;DHT22;14660;49.008;8.390;2023-04-25T02:19:54;10.40;99.90
27128;DHT22;14660;49.008;8.390;2023-04-25T02:22:21;10.40;99.90
27128;DHT22;14660;49.008;8.390;2023-04-25T02:24:48;10.30;99.90
27128;DHT22;14660;49.008;8.390;2023-04-25T02:27:15;10.40;99.90
27128;DHT22;14660;49.008;8.390;2023-04-25T02:29:41;10.40;99.90
27128;DHT22;14660;49.008;8.390;2023-04-25T02:32:08;10.40;99.90
27128;DHT22;14660;49.008;8.390;2023-04-25T02:34:34;10.40;99.90
27128;DHT22;14660;49.008;8.390;2023-04-25T02:37:01;10.40;99.90
27128;DHT22;14660;49.008;8.390;2023-04-25T02:39:28;10.40;99.90
27128;DHT22;14660;49.008;8.390;2023-04-25T02:41:55;10.40;99.90
27128;DHT22;14660;49.008;8.390;2023-04-25T02:44:21;10.40;99.90
27128;DHT22;14660;49.008;8.390;2023-04-25T02:46:48;10.30;99.90
27128;DHT22;14660;49.008;8.390;2023-04-25T02:49:15;10.30;99.90
27128;DHT22;14660;49.008;8.390;2023-04-25T02:51:42;10.20;99.90
27128;DHT22;14660;49.008;8.390;2023-04-25T02:54:09;10.20;99.90
27128;DHT22;14660;49.008;8.390;2023-04-25T02:56:36;10.30;99.90
27128;DHT22;14660;49.008;8.390;2023-04-25T02:59:03;10.30;99.90
27128;DHT22;14660;49.008;8.390;2023-04-25T03:01:30;10.20;99.90
27128;DHT22;14660;49.008;8.390;2023-04-25T03:03:57;10.20;99.90
27128;DHT22;14660;49.008;8.390;2023-04-25T03:06:24;10.10;99.90
27128;DHT22;14660;49.008;8.390;2023-04-25T03:08:50;9.90;99.90
27128;DHT22;14660;49.008;8.390;2023-04-25T03:11:17;9.90;99.90
27128;DHT22;14660;49.008;8.390;2023-04-25T03:13:46;9.80;99.90
27128;DHT22;14660;49.008;8.390;2023-04-25T03:16:13;9.90;99.90
27128;DHT22;14660;49.008;8.390;2023-04-25T03:18:40;9.90;99.90
27128;DHT22;14660;49.008;8.390;2023-04-25T03:21:07;9.90;99.90
27128;DHT22;14660;49.008;8.390;2023-04-25T03:23:34;9.90;99.90
27128;DHT22;14660;49.008;8.390;2023-04-25T03:26:01;10.00;99.90
27128;DHT22;14660;49.008;8.390;2023-04-25T03:28:28;10.00;99.90
27128;DHT22;14660;49.008;8.390;2023-04-25T03:30:54;10.00;99.90
27128;DHT22;14660;49.008;8.390;2023-04-25T03:33:22;10.00;99.90
27128;DHT22;14660;49.008;8.390;2023-04-25T03:35:49;10.00;99.90
27128;DHT22;14660;49.008;8.390;2023-04-25T03:38:17;10.00;99.90
27128;DHT22;14660;49.008;8.390;2023-04-25T03:40:43;10.00;99.90
27128;DHT22;14660;49.008;8.390;2023-04-25T03:43:10;10.00;99.90
27128;DHT22;14660;49.008;8.390;2023-04-25T03:45:38;10.10;99.90
27128;DHT22;14660;49.008;8.390;2023-04-25T03:48:04;10.00;99.90
27128;DHT22;14660;49.008;8.390;2023-04-25T03:50:31;10.00;99.90
27128;DHT22;14660;49.008;8.390;2023-04-25T03:52:58;10.00;99.90
27128;DHT22;14660;49.008;8.390;2023-04-25T03:55:25;10.00;99.90
27128;DHT22;14660;49.008;8.390;2023-04-25T03:57:52;9.90;99.90
27128;DHT22;14660;49.008;8.390;2023-04-25T04:00:19;9.90;99.90
27128;DHT22;14660;49.008;8.390;2023-04-25T04:02:46;9.90;99.90
27128;DHT22;14660;49.008;8.390;2023-04-25T04:05:13;9.90;99.90
27128;DHT22;14660;49.008;8.390;2023-04-25T04:07:39;9.90;99.90
27128;DHT22;14660;49.008;8.390;2023-04-25T04:10:07;10.00;99.90
27128;DHT22;14660;49.008;8.390;2023-04-25T04:12:34;10.00;99.90
27128;DHT22;14660;49.008;8.390;2023-04-25T04:15:03;9.90;99.90
27128;DHT22;14660;49.008;8.390;2023-04-25T04:17:30;9.90;99.90
27128;DHT22;14660;49.008;8.390;2023-04-25T04:19:57;9.90;99.90
27128;DHT22;14660;49.008;8.390;2023-04-25T04:22:24;10.00;99.90
27128;DHT22;14660;49.008;8.390;2023-04-25T04:24:51;10.10;99.90
27128;DHT22;14660;49.008;8.390;2023-04-25T04:27:21;10.00;99.90
27128;DHT22;14660;49.008;8.390;2023-04-25T04:29:48;10.10;99.90
27128;DHT22;14660;49.008;8.390;2023-04-25T04:32:16;10.00;99.90
27128;DHT22;14660;49.008;8.390;2023-04-25T04:34:43;10.00;99.90
27128;DHT22;14660;49.008;8.390;2023-04-25T04:37:11;10.00;99.90
27128;DHT22;14660;49.008;8.390;2023-04-25T04:39:40;10.00;99.90
27128;DHT22;14660;49.008;8.390;2023-04-25T04:42:07;9.90;99.90
27128;DHT22;14660;49.008;8.390;2023-04-25T04:44:35;9.90;99.90
27128;DHT22;14660;49.008;8.390;2023-04-25T04:47:01;10.00;99.90
27128;DHT22;14660;49.008;8.390;2023-04-25T04:49:32;10.10;99.90
27128;DHT22;14660;49.008;8.390;2023-04-25T04:51:59;10.10;99.90
27128;DHT22;14660;49.008;8.390;2023-04-25T04:54:27;10.10;99.90
27128;DHT22;14660;49.008;8.390;2023-04-25T04:56:54;10.00;99.90
27128;DHT22;14660;49.008;8.390;2023-04-25T04:59:20;9.90;99.90
27128;DHT22;14660;49.008;8.390;2023-04-25T05:01:47;10.00;99.90
27128;DHT22;14660;49.008;8.390;2023-04-25T05:04:14;10.10;99.90
27128;DHT22;14660;49.008;8.390;2023-04-25T05:06:41;10.00;99.90
27128;DHT22;14660;49.008;8.390;2023-04-25T05:09:09;10.10;99.90
27128;DHT22;14660;49.008;8.390;2023-04-25T05:11:36;10.10;99.90
27128;DHT22;14660;49.008;8.390;2023-04-25T05:14:03;10.10;99.90
27128;DHT22;14660;49.008;8.390;2023-04-25T05:16:29;10.10;99.90
27128;DHT22;14660;49.008;8.390;2023-04-25T05:18:57;10.00;99.90
27128;DHT22;14660;49.008;8.390;2023-04-25T05:21:23;10.10;99.90
27128;DHT22;14660;49.008;8.390;2023-04-25T05:23:50;10.20;99.90
27128;DHT22;14660;49.008;8.390;2023-04-25T05:26:17;10.20;99.90
27128;DHT22;14660;49.008;8.390;2023-04-25T05:28:44;10.30;99.90
27128;DHT22;14660;49.008;8.390;2023-04-25T05:31:11;10.30;99.90
27128;DHT22;14660;49.008;8.390;2023-04-25T05:33:38;10.30;99.90
27128;DHT22;14660;49.008;8.390;2023-04-25T05:36:05;10.30;99.90
27128;DHT22;14660;49.008;8.390;2023-04-25T05:38:33;10.30;99.90
27128;DHT22;14660;49.008;8.390;2023-04-25T05:41:00;10.40;99.90
27128;DHT22;14660;49.008;8.390;2023-04-25T05:43:27;10.50;99.90
27128;DHT22;14660;49.008;8.390;2023-04-25T05:45:54;10.60;99.90
27128;DHT22;14660;49.008;8.390;2023-04-25T05:48:21;10.70;99.90
27128;DHT22;14660;49.008;8.390;2023-04-25T05:50:47;10.70;99.90
27128;DHT22;14660;49.008;8.390;2023-04-25T05:53:14;10.70;99.90
27128;DHT22;14660;49.008;8.390;2023-04-25T05:55:41;10.80;99.90
27128;DHT22;14660;49.008;8.390;2023-04-25T05:58:08;10.70;99.90
27128;DHT22;14660;49.008;8.390;2023-04-25T06:00:35;10.80;99.90
27128;DHT22;14660;49.008;8.390;2023-04-25T06:03:02;10.90;99.90
27128;DHT22;14660;49.008;8.390;2023-04-25T06:05:30;10.80;99.90
27128;DHT22;14660;49.008;8.390;2023-04-25T06:07:57;10.70;99.90
27128;DHT22;14660;49.008;8.390;2023-04-25T06:10:23;10.60;99.90
27128;DHT22;14660;49.008;8.390;2023-04-25T06:12:49;10.60;99.90
27128;DHT22;14660;49.008;8.390;2023-04-25T06:15:16;10.60;99.90
27128;DHT22;14660;49.008;8.390;2023-04-25T06:17:43;10.60;99.90
27128;DHT22;14660;49.008;8.390;2023-04-25T06:20:10;10.60;99.90
27128;DHT22;14660;49.008;8.390;2023-04-25T06:22:38;10.50;99.90
27128;DHT22;14660;49.008;8.390;2023-04-25T06:25:05;10.60;99.90
27128;DHT22;14660;49.008;8.390;2023-04-25T06:27:34;10.50;99.90
27128;DHT22;14660;49.008;8.390;2023-04-25T06:29:59;10.60;99.90
27128;DHT22;14660;49.008;8.390;2023-04-25T06:32:26;10.50;99.90
27128;DHT22;14660;49.008;8.390;2023-04-25T06:34:55;10.50;99.90
27128;DHT22;14660;49.008;8.390;2023-04-25T06:37:22;10.60;99.90
27128;DHT22;14660;49.008;8.390;2023-04-25T06:39:48;10.50;99.90
27128;DHT22;14660;49.008;8.390;2023-04-25T06:42:15;10.60;99.90
27128;DHT22;14660;49.008;8.390;2023-04-25T06:44:42;10.60;99.90
27128;DHT22;14660;49.008;8.390;2023-04-25T06:47:09;10.60;99.90
27128;DHT22;14660;49.008;8.390;2023-04-25T06:49:36;10.50;99.90
27128;DHT22;14660;49.008;8.390;2023-04-25T06:52:03;10.40;99.90
27128;DHT22;14660;49.008;8.390;2023-04-25T06:54:30;10.50;99.90
27128;DHT22;14660;49.008;8.390;2023-04-25T06:56:57;10.60;99.90
27128;DHT22;14660;49.008;8.390;2023-04-25T06:59:24;10.60;99.90
27128;DHT22;14660;49.008;8.390;2023-04-25T07:01:51;10.60;99.90
27128;DHT22;14660;49.008;8.390;2023-04-25T07:04:17;10.80;99.90
27128;DHT22;14660;49.008;8.390;2023-04-25T07:06:44;10.90;99.90
27128;DHT22;14660;49.008;8.390;2023-04-25T07:09:14;11.00;99.90
27128;DHT22;14660;49.008;8.390;2023-04-25T07:11:41;11.00;99.90
27128;DHT22;14660;49.008;8.390;2023-04-25T07:14:07;11.00;99.90
27128;DHT22;14660;49.008;8.390;2023-04-25T07:16:34;11.00;99.90
27128;DHT22;14660;49.008;8.390;2023-04-25T07:19:01;10.90;99.90
27128;DHT22;14660;49.008;8.390;2023-04-25T07:21:28;10.80;99.90
27128;DHT22;14660;49.008;8.390;2023-04-25T07:23:54;10.80;99.90
27128;DHT22;14660;49.008;8.390;2023-04-25T07:26:21;10.70;99.90
27128;DHT22;14660;49.008;8.390;2023-04-25T07:28:48;10.70;99.90
27128;DHT22;14660;49.008;8.390;2023-04-25T07:31:18;10.70;99.90
27128;DHT22;14660;49.008;8.390;2023-04-25T07:33:44;10.60;99.90
27128;DHT22;14660;49.008;8.390;2023-04-25T07:36:12;10.60;99.90
27128;DHT22;14660;49.008;8.390;2023-04-25T07:38:39;10.60;99.90
27128;DHT22;14660;49.008;8.390;2023-04-25T07:41:06;10.70;99.90
27128;DHT22;14660;49.008;8.390;2023-04-25T07:43:33;10.70;99.90
27128;DHT22;14660;49.008;8.390;2023-04-25T07:46:00;10.70;99.90
27128;DHT22;14660;49.008;8.390;2023-04-25T07:48:26;10.70;99.90
27128;DHT22;14660;49.008;8.390;2023-04-25T07:50:53;10.80;99.90
27128;DHT22;14660;49.008;8.390;2023-04-25T07:53:20;10.80;99.90
27128;DHT22;14660;49.008;8.390;2023-04-25T07:55:48;10.70;99.90
27128;DHT22;14660;49.008;8.390;2023-04-25T07:58:15;10.60;99.90
27128;DHT22;14660;49.008;8.390;2023-04-25T08:00:42;10.60;99.90
27128;DHT22;14660;49.008;8.390;2023-04-25T08:03:09;10.60;99.90
27128;DHT22;14660;49.008;8.390;2023-04-25T08:05:36;10.60;99.90
27128;DHT22;14660;49.008;8.390;2023-04-25T08:08:03;10.70;99.90
27128;DHT22;14660;49.008;8.390;2023-04-25T08:10:30;10.80;99.90
27128;DHT22;14660;49.008;8.390;2023-04-25T08:12:59;10.80;99.90
27128;DHT22;14660;49.008;8.390;2023-04-25T08:15:26;10.90;99.90
27128;DHT22;14660;49.008;8.390;2023-04-25T08:17:53;10.80;99.90
27128;DHT22;14660;49.008;8.390;2023-04-25T08:20:20;11.00;99.90
27128;DHT22;14660;49.008;8.390;2023-04-25T08:22:47;10.90;99.90
27128;DHT22;14660;49.008;8.390;2023-04-25T08:25:15;10.90;99.90
27128;DHT22;14660;49.008;8.390;2023-04-25T08:27:43;10.90;99.90
27128;DHT22;14660;49.008;8.390;2023-04-25T08:30:10;10.90;99.90
27128;DHT22;14660;49.008;8.390;2023-04-25T08:32:37;11.00;99.90
27128;DHT22;14660;49.008;8.390;2023-04-25T08:35:07;10.90;99.90
27128;DHT22;14660;49.008;8.390;2023-04-25T08:37:34;10.90;99.90
27128;DHT22;14660;49.008;8.390;2023-04-25T08:40:06;10.90;99.90
27128;DHT22;14660;49.008;8.390;2023-04-25T08:42:38;11.10;99.90
27128;DHT22;14660;49.008;8.390;2023-04-25T08:45:05;11.10;99.90
27128;DHT22;14660;49.008;8.390;2023-04-25T08:47:37;11.10;99.90
27128;DHT22;14660;49.008;8.390;2023-04-25T08:50:05;11.20;99.90
27128;DHT22;14660;49.008;8.390;2023-04-25T08:52:37;11.30;99.90
27128;DHT22;14660;49.008;8.390;2023-04-25T08:55:09;11.30;99.90
27128;DHT22;14660;49.008;8.390;2023-04-25T08:57:38;11.30;99.90
27128;DHT22;14660;49.008;8.390;2023-04-25T09:00:07;11.30;99.90
27128;DHT22;14660;49.008;8.390;2023-04-25T09:02:35;11.30;99.90
27128;DHT22;14660;49.008;8.390;2023-04-25T09:05:02;11.20;99.90
27128;DHT22;14660;49.008;8.390;2023-04-25T09:07:31;11.20;99.90
27128;DHT22;14660;49.008;8.390;2023-04-25T09:09:58;11.20;99.90
27128;DHT22;14660;49.008;8.390;2023-04-25T09:12:29;10.90;99.90
27128;DHT22;14660;49.008;8.390;2023-04-25T09:15:14;10.80;99.90
27128;DHT22;14660;49.008;8.390;2023-04-25T09:17:42;10.60;99.90
27128;DHT22;14660;49.008;8.390;2023-04-25T09:20:12;10.50;99.90
27128;DHT22;14660;49.008;8.390;2023-04-25T09:22:40;10.50;99.90
27128;DHT22;14660;49.008;8.390;2023-04-25T09:25:11;10.60;99.90
27128;DHT22;14660;49.008;8.390;2023-04-25T09:27:59;10.50;99.90
27128;DHT22;14660;49.008;8.390;2023-04-25T09:30:34;10.50;99.90
27128;DHT22;14660;49.008;8.390;2023-04-25T09:33:18;10.50;99.90
27128;DHT22;14660;49.008;8.390;2023-04-25T09:35:45;10.70;99.90
27128;DHT22;14660;49.008;8.390;2023-04-25T09:38:14;10.50;99.90
27128;DHT22;14660;49.008;8.390;2023-04-25T09:40:46;10.40;99.90
27128;DHT22;14660;49.008;8.390;2023-04-25T09:43:20;10.40;99.90
27128;DHT22;14660;49.008;8.390;2023-04-25T09:45:47;10.30;99.90
27128;DHT22;14660;49.008;8.390;2023-04-25T09:48:23;9.60;99.90
27128;DHT22;14660;49.008;8.390;2023-04-25T09:51:13;9.60;99.90
27128;DHT22;14660;49.008;8.390;2023-04-25T09:53:45;9.30;99.90
27128;DHT22;14660;49.008;8.390;2023-04-25T09:56:12;8.90;99.90
27128;DHT22;14660;49.008;8.390;2023-04-25T09:58:43;9.00;99.90
27128;DHT22;14660;49.008;8.390;2023-04-25T10:01:10;9.20;99.90
27128;DHT22;14660;49.008;8.390;2023-04-25T10:03:39;9.40;99.90
27128;DHT22;14660;49.008;8.390;2023-04-25T10:06:16;9.40;99.90
27128;DHT22;14660;49.008;8.390;2023-04-25T10:08:44;9.20;99.90
27128;DHT22;14660;49.008;8.390;2023-04-25T10:11:14;9.20;99.90
27128;DHT22;14660;49.008;8.390;2023-04-25T10:13:43;9.50;99.90
27128;DHT22;14660;49.008;8.390;2023-04-25T10:16:09;9.70;99.90
27128;DHT22;14660;49.008;8.390;2023-04-25T10:18:36;10.00;99.90
27128;DHT22;14660;49.008;8.390;2023-04-25T10:21:05;10.10;99.90
27128;DHT22;14660;49.008;8.390;2023-04-25T10:23:32;10.30;99.90
27128;DHT22;14660;49.008;8.390;2023-04-25T10:26:03;10.40;99.90
27128;DHT22;14660;49.008;8.390;2023-04-25T10:29:00;10.80;99.90
27128;DHT22;14660;49.008;8.390;2023-04-25T10:31:30;11.20;99.90
27128;DHT22;14660;49.008;8.390;2023-04-25T10:33:59;11.50;99.90
27128;DHT22;14660;49.008;8.390;2023-04-25T10:36:31;11.70;99.90
27128;DHT22;14660;49.008;8.390;2023-04-25T10:39:03;11.50;99.90
27128;DHT22;14660;49.008;8.390;2023-04-25T10:41:46;11.40;99.90
27128;DHT22;14660;49.008;8.390;2023-04-25T10:44:15;11.50;99.90
27128;DHT22;14660;49.008;8.390;2023-04-25T10:46:44;11.50;99.90
27128;DHT22;14660;49.008;8.390;2023-04-25T10:49:29;11.50;99.90
27128;DHT22;14660;49.008;8.390;2023-04-25T10:55:03;11.30;99.90
27128;DHT22;14660;49.008;8.390;2023-04-25T10:57:47;11.40;99.90
27128;DHT22;14660;49.008;8.390;2023-04-25T11:00:20;11.30;99.90
27128;DHT22;14660;49.008;8.390;2023-04-25T11:02:52;11.40;99.90
27128;DHT22;14660;49.008;8.390;2023-04-25T11:07:55;11.30;99.90
27128;DHT22;14660;49.008;8.390;2023-04-25T11:10:34;11.40;99.90
27128;DHT22;14660;49.008;8.390;2023-04-25T11:13:02;11.30;99.90
27128;DHT22;14660;49.008;8.390;2023-04-25T11:15:29;11.50;99.90
27128;DHT22;14660;49.008;8.390;2023-04-25T11:17:56;11.10;99.90
27128;DHT22;14660;49.008;8.390;2023-04-25T11:20:25;11.10;99.90
27128;DHT22;14660;49.008;8.390;2023-04-25T11:22:52;11.00;99.90
27128;DHT22;14660;49.008;8.390;2023-04-25T11:25:20;10.90;99.90
27128;DHT22;14660;49.008;8.390;2023-04-25T11:28:05;10.70;99.90
27128;DHT22;14660;49.008;8.390;2023-04-25T11:30:32;10.60;99.90
27128;DHT22;14660;49.008;8.390;2023-04-25T11:32:59;10.60;99.90
27128;DHT22;14660;49.008;8.390;2023-04-25T11:35:27;10.70;99.90
27128;DHT22;14660;49.008;8.390;2023-04-25T11:37:53;10.70;99.90
27128;DHT22;14660;49.008;8.390;2023-04-25T11:40:20;10.80;99.90
27128;DHT22;14660;49.008;8.390;2023-04-25T11:42:47;10.80;99.90
27128;DHT22;14660;49.008;8.390;2023-04-25T11:45:14;10.90;99.90
27128;DHT22;14660;49.008;8.390;2023-04-25T11:47:42;11.20;99.90
27128;DHT22;14660;49.008;8.390;2023-04-25T11:50:09;11.10;99.90
27128;DHT22;14660;49.008;8.390;2023-04-25T11:52:46;11.10;99.90
27128;DHT22;14660;49.008;8.390;2023-04-25T11:55:17;11.20;99.90
27128;DHT22;14660;49.008;8.390;2023-04-25T11:57:50;11.40;99.90
27128;DHT22;14660;49.008;8.390;2023-04-25T12:00:34;11.30;99.90
27128;DHT22;14660;49.008;8.390;2023-04-25T12:03:01;11.20;99.90
27128;DHT22;14660;49.008;8.390;2023-04-25T12:05:31;11.00;99.90
27128;DHT22;14660;49.008;8.390;2023-04-25T12:08:19;10.90;99.90
27128;DHT22;14660;49.008;8.390;2023-04-25T12:10:47;10.80;99.90
27128;DHT22;14660;49.008;8.390;2023-04-25T12:13:32;10.70;99.90
27128;DHT22;14660;49.008;8.390;2023-04-25T12:16:00;10.70;99.90
27128;DHT22;14660;49.008;8.390;2023-04-25T12:18:26;10.90;99.90
27128;DHT22;14660;49.008;8.390;2023-04-25T12:20:53;11.00;99.90
27128;DHT22;14660;49.008;8.390;2023-04-25T12:23:29;11.20;99.90
27128;DHT22;14660;49.008;8.390;2023-04-25T12:25:56;11.40;99.90
27128;DHT22;14660;49.008;8.390;2023-04-25T12:28:25;11.70;99.90
27128;DHT22;14660;49.008;8.390;2023-04-25T12:31:11;11.90;99.90
27128;DHT22;14660;49.008;8.390;2023-04-25T12:33:38;11.90;99.90
27128;DHT22;14660;49.008;8.390;2023-04-25T12:36:06;12.20;99.90
27128;DHT22;14660;49.008;8.390;2023-04-25T12:38:42;12.40;99.90
27128;DHT22;14660;49.008;8.390;2023-04-25T12:41:09;12.30;99.90
27128;DHT22;14660;49.008;8.390;2023-04-25T12:43:35;12.40;99.90
27128;DHT22;14660;49.008;8.390;2023-04-25T12:46:03;12.60;99.90
27128;DHT22;14660;49.008;8.390;2023-04-25T12:48:30;12.60;99.90
27128;DHT22;14660;49.008;8.390;2023-04-25T12:50:57;12.30;99.90
27128;DHT22;14660;49.008;8.390;2023-04-25T12:53:24;12.30;99.90
27128;DHT22;14660;49.008;8.390;2023-04-25T12:55:51;12.20;99.90
27128;DHT22;14660;49.008;8.390;2023-04-25T12:58:18;12.20;99.90
27128;DHT22;14660;49.008;8.390;2023-04-25T13:00:45;12.30;99.90
27128;DHT22;14660;49.008;8.390;2023-04-25T13:03:12;12.50;99.90
27128;DHT22;14660;49.008;8.390;2023-04-25T13:05:39;12.50;99.90
27128;DHT22;14660;49.008;8.390;2023-04-25T13:08:06;12.40;99.90
27128;DHT22;14660;49.008;8.390;2023-04-25T13:10:33;12.20;99.90
27128;DHT22;14660;49.008;8.390;2023-04-25T13:13:00;12.20;99.90
27128;DHT22;14660;49.008;8.390;2023-04-25T13:15:27;12.20;99.90
27128;DHT22;14660;49.008;8.390;2023-04-25T13:17:54;12.40;99.90
27128;DHT22;14660;49.008;8.390;2023-04-25T13:20:22;12.50;99.90
27128;DHT22;14660;49.008;8.390;2023-04-25T13:22:49;12.70;99.90
27128;DHT22;14660;49.008;8.390;2023-04-25T13:25:16;12.60;99.90
27128;DHT22;14660;49.008;8.390;2023-04-25T13:27:43;12.70;99.90
27128;DHT22;14660;49.008;8.390;2023-04-25T13:30:11;12.60;99.90
27128;DHT22;14660;49.008;8.390;2023-04-25T13:32:38;12.60;99.90
27128;DHT22;14660;49.008;8.390;2023-04-25T13:35:10;12.70;99.90
27128;DHT22;14660;49.008;8.390;2023-04-25T13:37:38;12.60;99.90
27128;DHT22;14660;49.008;8.390;2023-04-25T13:40:08;12.70;99.90
27128;DHT22;14660;49.008;8.390;2023-04-25T13:42:37;12.70;99.90
27128;DHT22;14660;49.008;8.390;2023-04-25T13:45:04;12.90;99.90
27128;DHT22;14660;49.008;8.390;2023-04-25T13:47:31;12.80;99.90
27128;DHT22;14660;49.008;8.390;2023-04-25T13:49:58;12.90;99.90
27128;DHT22;14660;49.008;8.390;2023-04-25T13:52:24;13.00;99.90
27128;DHT22;14660;49.008;8.390;2023-04-25T13:54:52;12.90;99.90
27128;DHT22;14660;49.008;8.390;2023-04-25T13:57:19;12.40;99.90
27128;DHT22;14660;49.008;8.390;2023-04-25T13:59:46;11.90;99.90
27128;DHT22;14660;49.008;8.390;2023-04-25T14:02:13;12.20;99.90
27128;DHT22;14660;49.008;8.390;2023-04-25T14:04:40;12.60;99.90
27128;DHT22;14660;49.008;8.390;2023-04-25T14:07:07;12.80;99.90
27128;DHT22;14660;49.008;8.390;2023-04-25T14:09:34;12.80;99.90
27128;DHT22;14660;49.008;8.390;2023-04-25T14:12:01;12.90;99.90
27128;DHT22;14660;49.008;8.390;2023-04-25T14:14:28;13.00;99.90
27128;DHT22;14660;49.008;8.390;2023-04-25T14:16:55;12.90;99.90
27128;DHT22;14660;49.008;8.390;2023-04-25T14:19:23;12.90;99.90
27128;DHT22;14660;49.008;8.390;2023-04-25T14:21:54;12.90;99.90
27128;DHT22;14660;49.008;8.390;2023-04-25T14:24:21;12.90;99.90
27128;DHT22;14660;49.008;8.390;2023-04-25T14:26:48;13.10;99.90
27128;DHT22;14660;49.008;8.390;2023-04-25T14:29:15;13.00;99.90
27128;DHT22;14660;49.008;8.390;2023-04-25T14:31:42;12.90;99.90
27128;DHT22;14660;49.008;8.390;2023-04-25T14:34:09;12.90;99.90
27128;DHT22;14660;49.008;8.390;2023-04-25T14:36:36;12.80;99.90
27128;DHT22;14660;49.008;8.390;2023-04-25T14:39:06;12.90;99.90
27128;DHT22;14660;49.008;8.390;2023-04-25T14:41:33;12.90;99.90
27128;DHT22;14660;49.008;8.390;2023-04-25T14:43:59;12.90;99.90
27128;DHT22;14660;49.008;8.390;2023-04-25T14:46:26;12.90;99.90
27128;DHT22;14660;49.008;8.390;2023-04-25T14:48:53;13.00;99.90
27128;DHT22;14660;49.008;8.390;2023-04-25T14:51:22;13.00;99.90
27128;DHT22;14660;49.008;8.390;2023-04-25T14:53:49;13.20;99.90
27128;DHT22;14660;49.008;8.390;2023-04-25T14:56:16;13.40;99.90
27128;DHT22;14660;49.008;8.390;2023-04-25T14:58:43;13.50;99.90
27128;DHT22;14660;49.008;8.390;2023-04-25T15:01:10;13.40;99.90
27128;DHT22;14660;49.008;8.390;2023-04-25T15:03:37;13.40;99.90
27128;DHT22;14660;49.008;8.390;2023-04-25T15:06:04;13.20;99.90
27128;DHT22;14660;49.008;8.390;2023-04-25T15:08:34;13.00;99.90
27128;DHT22;14660;49.008;8.390;2023-04-25T15:11:02;12.90;99.90
27128;DHT22;14660;49.008;8.390;2023-04-25T15:13:29;13.00;99.90
27128;DHT22;14660;49.008;8.390;2023-04-25T15:15:57;12.90;99.90
27128;DHT22;14660;49.008;8.390;2023-04-25T15:18:24;12.90;99.90
27128;DHT22;14660;49.008;8.390;2023-04-25T15:20:52;12.80;99.90
27128;DHT22;14660;49.008;8.390;2023-04-25T15:23:20;12.80;99.90
27128;DHT22;14660;49.008;8.390;2023-04-25T15:25:47;12.80;99.90
27128;DHT22;14660;49.008;8.390;2023-04-25T15:28:14;12.90;99.90
27128;DHT22;14660;49.008;8.390;2023-04-25T15:30:43;12.70;99.90
27128;DHT22;14660;49.008;8.390;2023-04-25T15:33:10;12.60;99.90
27128;DHT22;14660;49.008;8.390;2023-04-25T15:35:37;12.40;99.90
27128;DHT22;14660;49.008;8.390;2023-04-25T15:38:04;12.10;99.90
27128;DHT22;14660;49.008;8.390;2023-04-25T15:40:32;12.00;99.90
27128;DHT22;14660;49.008;8.390;2023-04-25T15:42:59;11.90;99.90
27128;DHT22;14660;49.008;8.390;2023-04-25T15:45:26;11.80;99.90